sensor_id;sensor_type;location;lat;lon;timestamp;temperature;humidity
4566;DHT22;2295;51.050;14.608;2022-09-13T00:01:03;8.50;99.90
4566;DHT22;2295;51.050;14.608;2022-09-13T00:03:32;8.50;99.90
4566;DHT22;2295;51.050;14.608;2022-09-13T00:06:05;8.50;99.90
4566;DHT22;2295;51.050;14.608;2022-09-13T00:08:34;8.50;99.90
4566;DHT22;2295;51.050;14.608;2022-09-13T00:11:02;8.50;99.90
4566;DHT22;2295;51.050;14.608;2022-09-13T00:13:30;8.50;99.90
4566;DHT22;2295;51.050;14.608;2022-09-13T00:15:58;8.40;99.90
4566;DHT22;2295;51.050;14.608;2022-09-13T00:18:28;8.40;99.90
4566;DHT22;2295;51.050;14.608;2022-09-13T00:21:04;8.40;99.90
4566;DHT22;2295;51.050;14.608;2022-09-13T00:23:32;8.30;99.90
4566;DHT22;2295;51.050;14.608;2022-09-13T00:26:04;8.30;99.90
4566;DHT22;2295;51.050;14.608;2022-09-13T00:28:32;8.30;99.90
4566;DHT22;2295;51.050;14.608;2022-09-13T00:31:00;8.30;99.90
4566;DHT22;2295;51.050;14.608;2022-09-13T00:33:28;8.20;99.90
4566;DHT22;2295;51.050;14.608;2022-09-13T00:35:56;8.20;99.90
4566;DHT22;2295;51.050;14.608;2022-09-13T00:38:26;8.10;99.90
4566;DHT22;2295;51.050;14.608;2022-09-13T00:40:54;8.10;99.90
4566;DHT22;2295;51.050;14.608;2022-09-13T00:43:39;8.00;99.90
4566;DHT22;2295;51.050;14.608;2022-09-13T00:46:07;8.00;99.90
4566;DHT22;2295;51.050;14.608;2022-09-13T00:48:35;7.90;99.90
4566;DHT22;2295;51.050;14.608;2022-09-13T00:51:04;7.90;99.90
4566;DHT22;2295;51.050;14.608;2022-09-13T00:53:35;7.80;99.90
4566;DHT22;2295;51.050;14.608;2022-09-13T00:56:05;7.90;99.90
4566;DHT22;2295;51.050;14.608;2022-09-13T00:58:35;7.80;99.90
4566;DHT22;2295;51.050;14.608;2022-09-13T01:01:04;7.80;99.90
4566;DHT22;2295;51.050;14.608;2022-09-13T01:03:35;7.80;99.90
4566;DHT22;2295;51.050;14.608;2022-09-13T01:06:04;7.80;99.90
4566;DHT22;2295;51.050;14.608;2022-09-13T01:08:34;7.80;99.90
4566;DHT22;2295;51.050;14.608;2022-09-13T01:11:05;7.80;99.90
4566;DHT22;2295;51.050;14.608;2022-09-13T01:13:34;7.70;99.90
4566;DHT22;2295;51.050;14.608;2022-09-13T01:16:02;7.80;99.90
4566;DHT22;2295;51.050;14.608;2022-09-13T01:18:30;7.80;99.90
4566;DHT22;2295;51.050;14.608;2022-09-13T01:23:52;7.70;99.90
4566;DHT22;2295;51.050;14.608;2022-09-13T01:29:39;7.60;99.90
4566;DHT22;2295;51.050;14.608;2022-09-13T01:32:16;7.70;99.90
4566;DHT22;2295;51.050;14.608;2022-09-13T01:34:49;7.70;99.90
4566;DHT22;2295;51.050;14.608;2022-09-13T01:40:07;7.70;99.90
4566;DHT22;2295;51.050;14.608;2022-09-13T01:42:47;7.70;99.90
4566;DHT22;2295;51.050;14.608;2022-09-13T01:45:19;7.70;99.90
4566;DHT22;2295;51.050;14.608;2022-09-13T01:47:51;7.80;99.90
4566;DHT22;2295;51.050;14.608;2022-09-13T01:50:21;7.80;99.90
4566;DHT22;2295;51.050;14.608;2022-09-13T01:52:54;7.80;99.90
4566;DHT22;2295;51.050;14.608;2022-09-13T01:55:25;7.90;99.90
4566;DHT22;2295;51.050;14.608;2022-09-13T01:57:57;7.90;99.90
4566;DHT22;2295;51.050;14.608;2022-09-13T02:00:28;7.90;99.90
4566;DHT22;2295;51.050;14.608;2022-09-13T02:03:00;7.90;99.90
4566;DHT22;2295;51.050;14.608;2022-09-13T02:05:30;8.00;99.90
4566;DHT22;2295;51.050;14.608;2022-09-13T02:07:59;8.00;99.90
4566;DHT22;2295;51.050;14.608;2022-09-13T02:10:29;8.00;99.90
4566;DHT22;2295;51.050;14.608;2022-09-13T02:12:59;8.00;99.90
4566;DHT22;2295;51.050;14.608;2022-09-13T02:15:29;8.00;99.90
4566;DHT22;2295;51.050;14.608;2022-09-13T02:18:00;8.10;99.90
4566;DHT22;2295;51.050;14.608;2022-09-13T02:20:32;8.10;99.90
4566;DHT22;2295;51.050;14.608;2022-09-13T02:23:03;8.10;99.90
4566;DHT22;2295;51.050;14.608;2022-09-13T02:25:32;8.10;99.90
4566;DHT22;2295;51.050;14.608;2022-09-13T02:28:04;8.10;99.90
4566;DHT22;2295;51.050;14.608;2022-09-13T02:30:33;8.10;99.90
4566;DHT22;2295;51.050;14.608;2022-09-13T02:33:09;8.10;99.90
4566;DHT22;2295;51.050;14.608;2022-09-13T02:35:39;8.10;99.90
4566;DHT22;2295;51.050;14.608;2022-09-13T02:38:09;8.10;99.90
4566;DHT22;2295;51.050;14.608;2022-09-13T02:40:51;8.10;99.90
4566;DHT22;2295;51.050;14.608;2022-09-13T02:43:21;8.10;99.90
4566;DHT22;2295;51.050;14.608;2022-09-13T02:45:50;8.20;99.90
4566;DHT22;2295;51.050;14.608;2022-09-13T02:48:24;8.20;99.90
4566;DHT22;2295;51.050;14.608;2022-09-13T02:51:01;8.30;99.90
4566;DHT22;2295;51.050;14.608;2022-09-13T02:53:35;8.40;99.90
4566;DHT22;2295;51.050;14.608;2022-09-13T02:56:09;8.40;99.90
4566;DHT22;2295;51.050;14.608;2022-09-13T02:58:40;8.40;99.90
4566;DHT22;2295;51.050;14.608;2022-09-13T03:01:11;8.30;99.90
4566;DHT22;2295;51.050;14.608;2022-09-13T03:03:42;8.40;99.90
4566;DHT22;2295;51.050;14.608;2022-09-13T03:06:10;8.40;99.90
4566;DHT22;2295;51.050;14.608;2022-09-13T03:08:38;8.50;99.90
4566;DHT22;2295;51.050;14.608;2022-09-13T03:11:09;8.50;99.90
4566;DHT22;2295;51.050;14.608;2022-09-13T03:13:46;8.50;99.90
4566;DHT22;2295;51.050;14.608;2022-09-13T03:16:20;8.50;99.90
4566;DHT22;2295;51.050;14.608;2022-09-13T03:18:59;8.50;99.90
4566;DHT22;2295;51.050;14.608;2022-09-13T03:21:41;8.50;99.90
4566;DHT22;2295;51.050;14.608;2022-09-13T03:24:14;8.50;99.90
4566;DHT22;2295;51.050;14.608;2022-09-13T03:26:45;8.50;99.90
4566;DHT22;2295;51.050;14.608;2022-09-13T03:29:22;8.50;99.90
4566;DHT22;2295;51.050;14.608;2022-09-13T03:31:52;8.50;99.90
4566;DHT22;2295;51.050;14.608;2022-09-13T03:34:27;8.50;99.90
4566;DHT22;2295;51.050;14.608;2022-09-13T03:37:00;8.50;99.90
4566;DHT22;2295;51.050;14.608;2022-09-13T03:39:32;8.50;99.90
4566;DHT22;2295;51.050;14.608;2022-09-13T03:42:03;8.50;99.90
4566;DHT22;2295;51.050;14.608;2022-09-13T03:44:32;8.50;99.90
4566;DHT22;2295;51.050;14.608;2022-09-13T03:47:02;8.50;99.90
4566;DHT22;2295;51.050;14.608;2022-09-13T03:49:32;8.40;99.90
4566;DHT22;2295;51.050;14.608;2022-09-13T03:52:00;8.40;99.90
4566;DHT22;2295;51.050;14.608;2022-09-13T03:54:29;8.50;99.90
4566;DHT22;2295;51.050;14.608;2022-09-13T03:57:08;8.50;99.90
4566;DHT22;2295;51.050;14.608;2022-09-13T03:59:37;8.50;99.90
4566;DHT22;2295;51.050;14.608;2022-09-13T04:02:05;8.60;99.90
4566;DHT22;2295;51.050;14.608;2022-09-13T04:04:39;8.60;99.90
4566;DHT22;2295;51.050;14.608;2022-09-13T04:07:08;8.70;99.90
4566;DHT22;2295;51.050;14.608;2022-09-13T04:09:36;8.70;99.90
4566;DHT22;2295;51.050;14.608;2022-09-13T04:12:05;8.70;99.90
4566;DHT22;2295;51.050;14.608;2022-09-13T04:14:33;8.80;99.90
4566;DHT22;2295;51.050;14.608;2022-09-13T04:17:01;8.80;99.90
4566;DHT22;2295;51.050;14.608;2022-09-13T04:19:29;8.80;99.90
4566;DHT22;2295;51.050;14.608;2022-09-13T04:21:59;8.80;99.90
4566;DHT22;2295;51.050;14.608;2022-09-13T04:24:28;8.70;99.90
4566;DHT22;2295;51.050;14.608;2022-09-13T04:26:56;8.70;99.90
4566;DHT22;2295;51.050;14.608;2022-09-13T04:29:25;8.70;99.90
4566;DHT22;2295;51.050;14.608;2022-09-13T04:31:53;8.70;99.90
4566;DHT22;2295;51.050;14.608;2022-09-13T04:34:22;8.70;99.90
4566;DHT22;2295;51.050;14.608;2022-09-13T04:36:51;8.80;99.90
4566;DHT22;2295;51.050;14.608;2022-09-13T04:39:20;8.90;99.90
4566;DHT22;2295;51.050;14.608;2022-09-13T04:41:50;9.00;99.90
4566;DHT22;2295;51.050;14.608;2022-09-13T04:44:20;9.10;99.90
4566;DHT22;2295;51.050;14.608;2022-09-13T04:46:50;9.10;99.90
4566;DHT22;2295;51.050;14.608;2022-09-13T04:49:18;9.10;99.90
4566;DHT22;2295;51.050;14.608;2022-09-13T04:51:47;9.20;99.90
4566;DHT22;2295;51.050;14.608;2022-09-13T04:54:15;9.20;99.90
4566;DHT22;2295;51.050;14.608;2022-09-13T04:56:47;9.20;99.90
4566;DHT22;2295;51.050;14.608;2022-09-13T04:59:15;9.30;99.90
4566;DHT22;2295;51.050;14.608;2022-09-13T05:01:43;9.40;99.90
4566;DHT22;2295;51.050;14.608;2022-09-13T05:04:11;9.50;99.90
4566;DHT22;2295;51.050;14.608;2022-09-13T05:06:39;9.60;99.90
4566;DHT22;2295;51.050;14.608;2022-09-13T05:09:09;9.70;99.90
4566;DHT22;2295;51.050;14.608;2022-09-13T05:11:39;9.80;99.90
4566;DHT22;2295;51.050;14.608;2022-09-13T05:14:09;10.00;99.90
4566;DHT22;2295;51.050;14.608;2022-09-13T05:16:37;10.10;99.90
4566;DHT22;2295;51.050;14.608;2022-09-13T05:19:05;10.30;99.90
4566;DHT22;2295;51.050;14.608;2022-09-13T05:21:33;10.40;99.90
4566;DHT22;2295;51.050;14.608;2022-09-13T05:24:01;10.50;99.90
4566;DHT22;2295;51.050;14.608;2022-09-13T05:26:30;10.50;99.90
4566;DHT22;2295;51.050;14.608;2022-09-13T05:28:58;10.60;99.90
4566;DHT22;2295;51.050;14.608;2022-09-13T05:31:28;10.60;99.90
4566;DHT22;2295;51.050;14.608;2022-09-13T05:33:57;10.60;99.90
4566;DHT22;2295;51.050;14.608;2022-09-13T05:36:25;10.60;99.90
4566;DHT22;2295;51.050;14.608;2022-09-13T05:38:54;10.60;99.90
4566;DHT22;2295;51.050;14.608;2022-09-13T05:41:42;10.60;99.90
4566;DHT22;2295;51.050;14.608;2022-09-13T05:44:10;10.60;99.90
4566;DHT22;2295;51.050;14.608;2022-09-13T05:46:41;10.60;99.90
4566;DHT22;2295;51.050;14.608;2022-09-13T05:49:10;10.70;99.90
4566;DHT22;2295;51.050;14.608;2022-09-13T05:51:38;10.80;99.90
4566;DHT22;2295;51.050;14.608;2022-09-13T05:54:06;11.00;99.90
4566;DHT22;2295;51.050;14.608;2022-09-13T05:56:34;11.20;99.90
4566;DHT22;2295;51.050;14.608;2022-09-13T05:59:02;11.30;99.90
4566;DHT22;2295;51.050;14.608;2022-09-13T06:01:30;11.50;99.90
4566;DHT22;2295;51.050;14.608;2022-09-13T06:03:59;11.70;99.90
4566;DHT22;2295;51.050;14.608;2022-09-13T06:06:27;11.90;99.90
4566;DHT22;2295;51.050;14.608;2022-09-13T06:08:55;12.10;99.90
4566;DHT22;2295;51.050;14.608;2022-09-13T06:11:23;12.50;99.90
4566;DHT22;2295;51.050;14.608;2022-09-13T06:13:52;13.00;99.90
4566;DHT22;2295;51.050;14.608;2022-09-13T06:16:20;14.00;99.90
4566;DHT22;2295;51.050;14.608;2022-09-13T06:18:48;14.60;99.90
4566;DHT22;2295;51.050;14.608;2022-09-13T06:21:18;14.80;99.90
4566;DHT22;2295;51.050;14.608;2022-09-13T06:23:52;15.30;99.90
4566;DHT22;2295;51.050;14.608;2022-09-13T06:26:21;15.60;99.90
4566;DHT22;2295;51.050;14.608;2022-09-13T06:28:50;15.40;99.90
4566;DHT22;2295;51.050;14.608;2022-09-13T06:31:18;15.10;99.90
4566;DHT22;2295;51.050;14.608;2022-09-13T06:33:46;14.70;99.90
4566;DHT22;2295;51.050;14.608;2022-09-13T06:36:15;14.20;99.90
4566;DHT22;2295;51.050;14.608;2022-09-13T06:38:45;13.80;99.90
4566;DHT22;2295;51.050;14.608;2022-09-13T06:41:15;13.60;99.90
4566;DHT22;2295;51.050;14.608;2022-09-13T06:43:44;13.30;99.90
4566;DHT22;2295;51.050;14.608;2022-09-13T06:46:13;13.20;99.90
4566;DHT22;2295;51.050;14.608;2022-09-13T06:48:42;13.00;99.90
4566;DHT22;2295;51.050;14.608;2022-09-13T06:51:11;13.70;99.90
4566;DHT22;2295;51.050;14.608;2022-09-13T06:53:40;15.20;99.90
4566;DHT22;2295;51.050;14.608;2022-09-13T06:56:10;16.60;99.90
4566;DHT22;2295;51.050;14.608;2022-09-13T06:58:39;16.80;99.90
4566;DHT22;2295;51.050;14.608;2022-09-13T07:01:08;16.40;99.90
4566;DHT22;2295;51.050;14.608;2022-09-13T07:03:37;16.00;99.90
4566;DHT22;2295;51.050;14.608;2022-09-13T07:06:06;15.90;99.90
4566;DHT22;2295;51.050;14.608;2022-09-13T07:08:34;17.00;99.90
4566;DHT22;2295;51.050;14.608;2022-09-13T07:11:02;17.70;98.40
4566;DHT22;2295;51.050;14.608;2022-09-13T07:13:31;17.60;98.00
4566;DHT22;2295;51.050;14.608;2022-09-13T07:16:00;16.90;98.90
4566;DHT22;2295;51.050;14.608;2022-09-13T07:18:28;16.40;99.90
4566;DHT22;2295;51.050;14.608;2022-09-13T07:21:00;16.00;99.90
4566;DHT22;2295;51.050;14.608;2022-09-13T07:23:29;15.90;99.90
4566;DHT22;2295;51.050;14.608;2022-09-13T07:25:57;16.60;99.90
4566;DHT22;2295;51.050;14.608;2022-09-13T07:28:32;17.50;99.70
4566;DHT22;2295;51.050;14.608;2022-09-13T07:31:05;18.00;97.40
4566;DHT22;2295;51.050;14.608;2022-09-13T07:33:33;17.90;97.90
4566;DHT22;2295;51.050;14.608;2022-09-13T07:36:01;17.80;98.00
4566;DHT22;2295;51.050;14.608;2022-09-13T07:38:32;17.70;97.80
4566;DHT22;2295;51.050;14.608;2022-09-13T07:41:00;17.60;97.80
4566;DHT22;2295;51.050;14.608;2022-09-13T07:43:32;17.50;98.70
4566;DHT22;2295;51.050;14.608;2022-09-13T07:46:01;17.60;98.40
4566;DHT22;2295;51.050;14.608;2022-09-13T07:48:29;17.60;98.60
4566;DHT22;2295;51.050;14.608;2022-09-13T07:50:59;17.70;98.80
4566;DHT22;2295;51.050;14.608;2022-09-13T07:53:28;17.80;98.50
4566;DHT22;2295;51.050;14.608;2022-09-13T07:56:00;18.10;97.80
4566;DHT22;2295;51.050;14.608;2022-09-13T07:58:29;18.60;96.40
4566;DHT22;2295;51.050;14.608;2022-09-13T08:01:00;18.90;95.70
4566;DHT22;2295;51.050;14.608;2022-09-13T08:03:30;19.00;94.50
4566;DHT22;2295;51.050;14.608;2022-09-13T08:05:57;18.60;95.40
4566;DHT22;2295;51.050;14.608;2022-09-13T08:08:25;18.40;95.30
4566;DHT22;2295;51.050;14.608;2022-09-13T08:10:53;18.00;95.50
4566;DHT22;2295;51.050;14.608;2022-09-13T08:13:21;17.70;96.90
4566;DHT22;2295;51.050;14.608;2022-09-13T08:15:50;17.50;97.30
4566;DHT22;2295;51.050;14.608;2022-09-13T08:18:19;17.40;98.00
4566;DHT22;2295;51.050;14.608;2022-09-13T08:20:47;17.30;98.20
4566;DHT22;2295;51.050;14.608;2022-09-13T08:23:15;17.20;98.90
4566;DHT22;2295;51.050;14.608;2022-09-13T08:25:43;17.00;98.70
4566;DHT22;2295;51.050;14.608;2022-09-13T08:28:13;16.90;99.40
4566;DHT22;2295;51.050;14.608;2022-09-13T08:30:41;16.80;99.90
4566;DHT22;2295;51.050;14.608;2022-09-13T08:33:10;16.60;99.90
4566;DHT22;2295;51.050;14.608;2022-09-13T08:35:39;16.40;99.90
4566;DHT22;2295;51.050;14.608;2022-09-13T08:38:07;16.30;99.90
4566;DHT22;2295;51.050;14.608;2022-09-13T08:40:37;16.20;99.90
4566;DHT22;2295;51.050;14.608;2022-09-13T08:43:08;16.00;99.90
4566;DHT22;2295;51.050;14.608;2022-09-13T08:45:38;15.90;99.90
4566;DHT22;2295;51.050;14.608;2022-09-13T08:48:09;15.80;99.90
4566;DHT22;2295;51.050;14.608;2022-09-13T08:50:40;15.60;99.90
4566;DHT22;2295;51.050;14.608;2022-09-13T08:53:17;15.50;99.90
4566;DHT22;2295;51.050;14.608;2022-09-13T08:55:49;15.50;99.90
4566;DHT22;2295;51.050;14.608;2022-09-13T08:58:24;15.60;99.90
4566;DHT22;2295;51.050;14.608;2022-09-13T09:00:58;15.60;99.90
4566;DHT22;2295;51.050;14.608;2022-09-13T09:03:29;15.60;99.90
4566;DHT22;2295;51.050;14.608;2022-09-13T09:06:07;15.70;99.90
4566;DHT22;2295;51.050;14.608;2022-09-13T09:08:37;15.80;99.90
4566;DHT22;2295;51.050;14.608;2022-09-13T09:11:07;15.90;99.90
4566;DHT22;2295;51.050;14.608;2022-09-13T09:13:40;16.00;99.90
4566;DHT22;2295;51.050;14.608;2022-09-13T09:16:14;16.10;99.90
4566;DHT22;2295;51.050;14.608;2022-09-13T09:18:43;16.20;99.90
4566;DHT22;2295;51.050;14.608;2022-09-13T09:21:16;16.20;99.90
4566;DHT22;2295;51.050;14.608;2022-09-13T09:23:45;16.20;99.90
4566;DHT22;2295;51.050;14.608;2022-09-13T09:26:16;16.20;99.90
4566;DHT22;2295;51.050;14.608;2022-09-13T09:28:45;16.20;99.90
4566;DHT22;2295;51.050;14.608;2022-09-13T09:31:15;16.30;99.90
4566;DHT22;2295;51.050;14.608;2022-09-13T09:33:48;16.30;99.90
4566;DHT22;2295;51.050;14.608;2022-09-13T09:36:20;16.30;99.90
4566;DHT22;2295;51.050;14.608;2022-09-13T09:38:50;16.40;99.90
4566;DHT22;2295;51.050;14.608;2022-09-13T09:41:21;16.60;99.90
4566;DHT22;2295;51.050;14.608;2022-09-13T09:43:54;16.80;99.90
4566;DHT22;2295;51.050;14.608;2022-09-13T09:46:25;16.90;99.90
4566;DHT22;2295;51.050;14.608;2022-09-13T09:48:55;17.00;99.90
4566;DHT22;2295;51.050;14.608;2022-09-13T09:51:25;17.10;99.90
4566;DHT22;2295;51.050;14.608;2022-09-13T09:53:57;17.20;99.90
4566;DHT22;2295;51.050;14.608;2022-09-13T09:56:28;17.30;99.90
4566;DHT22;2295;51.050;14.608;2022-09-13T09:58:57;17.50;99.90
4566;DHT22;2295;51.050;14.608;2022-09-13T10:01:25;17.80;99.90
4566;DHT22;2295;51.050;14.608;2022-09-13T10:03:57;18.10;99.90
4566;DHT22;2295;51.050;14.608;2022-09-13T10:06:29;18.50;99.90
4566;DHT22;2295;51.050;14.608;2022-09-13T10:08:58;18.80;99.90
4566;DHT22;2295;51.050;14.608;2022-09-13T10:11:37;19.10;99.40
4566;DHT22;2295;51.050;14.608;2022-09-13T10:14:06;19.10;97.40
4566;DHT22;2295;51.050;14.608;2022-09-13T10:17:00;18.70;97.90
4566;DHT22;2295;51.050;14.608;2022-09-13T10:19:29;18.50;98.90
4566;DHT22;2295;51.050;14.608;2022-09-13T10:22:04;18.60;98.70
4566;DHT22;2295;51.050;14.608;2022-09-13T10:24:32;18.70;98.90
4566;DHT22;2295;51.050;14.608;2022-09-13T10:27:00;18.90;98.10
4566;DHT22;2295;51.050;14.608;2022-09-13T10:29:29;18.80;97.70
4566;DHT22;2295;51.050;14.608;2022-09-13T10:31:58;18.80;98.30
4566;DHT22;2295;51.050;14.608;2022-09-13T10:34:34;18.90;98.00
4566;DHT22;2295;51.050;14.608;2022-09-13T10:37:05;19.00;97.90
4566;DHT22;2295;51.050;14.608;2022-09-13T10:39:47;19.10;97.50
4566;DHT22;2295;51.050;14.608;2022-09-13T10:42:15;19.30;96.90
4566;DHT22;2295;51.050;14.608;2022-09-13T10:44:51;19.50;95.20
4566;DHT22;2295;51.050;14.608;2022-09-13T10:47:21;19.50;95.50
4566;DHT22;2295;51.050;14.608;2022-09-13T10:49:50;19.90;94.70
4566;DHT22;2295;51.050;14.608;2022-09-13T10:52:27;20.40;94.10
4566;DHT22;2295;51.050;14.608;2022-09-13T10:57:39;21.00;93.80
4566;DHT22;2295;51.050;14.608;2022-09-13T11:00:08;21.40;91.10
4566;DHT22;2295;51.050;14.608;2022-09-13T11:05:21;21.50;92.10
4566;DHT22;2295;51.050;14.608;2022-09-13T11:07:58;21.40;90.40
4566;DHT22;2295;51.050;14.608;2022-09-13T11:10:31;21.30;90.20
4566;DHT22;2295;51.050;14.608;2022-09-13T11:13:04;21.90;88.10
4566;DHT22;2295;51.050;14.608;2022-09-13T11:15:37;22.40;87.40
4566;DHT22;2295;51.050;14.608;2022-09-13T11:18:16;23.00;85.30
4566;DHT22;2295;51.050;14.608;2022-09-13T11:20:48;23.10;81.10
4566;DHT22;2295;51.050;14.608;2022-09-13T11:26:19;24.30;76.60
4566;DHT22;2295;51.050;14.608;2022-09-13T11:28:56;24.80;76.20
4566;DHT22;2295;51.050;14.608;2022-09-13T11:31:31;25.40;72.40
4566;DHT22;2295;51.050;14.608;2022-09-13T11:34:06;25.50;67.90
4566;DHT22;2295;51.050;14.608;2022-09-13T11:36:43;25.50;68.00
4566;DHT22;2295;51.050;14.608;2022-09-13T11:39:14;25.70;67.00
4566;DHT22;2295;51.050;14.608;2022-09-13T11:41:49;25.60;65.00
4566;DHT22;2295;51.050;14.608;2022-09-13T11:44:30;25.40;67.40
4566;DHT22;2295;51.050;14.608;2022-09-13T11:47:01;25.60;67.90
4566;DHT22;2295;51.050;14.608;2022-09-13T11:49:43;25.90;67.50
4566;DHT22;2295;51.050;14.608;2022-09-13T11:52:17;26.30;63.10
4566;DHT22;2295;51.050;14.608;2022-09-13T11:54:51;26.30;61.90
4566;DHT22;2295;51.050;14.608;2022-09-13T11:57:24;26.10;62.70
4566;DHT22;2295;51.050;14.608;2022-09-13T11:59:54;25.90;63.70
4566;DHT22;2295;51.050;14.608;2022-09-13T12:02:25;25.60;65.90
4566;DHT22;2295;51.050;14.608;2022-09-13T12:04:55;25.90;65.20
4566;DHT22;2295;51.050;14.608;2022-09-13T12:07:44;26.00;61.80
4566;DHT22;2295;51.050;14.608;2022-09-13T12:10:15;25.40;63.40
4566;DHT22;2295;51.050;14.608;2022-09-13T12:12:46;25.30;66.40
4566;DHT22;2295;51.050;14.608;2022-09-13T12:15:17;25.70;64.60
4566;DHT22;2295;51.050;14.608;2022-09-13T12:17:47;25.80;64.70
4566;DHT22;2295;51.050;14.608;2022-09-13T12:20:19;25.90;61.40
4566;DHT22;2295;51.050;14.608;2022-09-13T12:22:48;26.00;65.20
4566;DHT22;2295;51.050;14.608;2022-09-13T12:25:18;26.30;62.30
4566;DHT22;2295;51.050;14.608;2022-09-13T12:27:53;26.50;61.20
4566;DHT22;2295;51.050;14.608;2022-09-13T12:30:22;26.40;62.30
4566;DHT22;2295;51.050;14.608;2022-09-13T12:32:51;26.30;63.50
4566;DHT22;2295;51.050;14.608;2022-09-13T12:35:25;26.30;62.70
4566;DHT22;2295;51.050;14.608;2022-09-13T12:38:04;26.20;63.80
4566;DHT22;2295;51.050;14.608;2022-09-13T12:40:39;26.10;62.40
4566;DHT22;2295;51.050;14.608;2022-09-13T12:43:16;25.80;63.60
4566;DHT22;2295;51.050;14.608;2022-09-13T12:45:53;25.60;64.40
4566;DHT22;2295;51.050;14.608;2022-09-13T12:48:29;25.30;63.50
4566;DHT22;2295;51.050;14.608;2022-09-13T12:51:04;25.20;64.40
4566;DHT22;2295;51.050;14.608;2022-09-13T12:53:42;25.00;66.70
4566;DHT22;2295;51.050;14.608;2022-09-13T12:56:24;25.20;66.10
4566;DHT22;2295;51.050;14.608;2022-09-13T12:59:09;25.10;67.10
4566;DHT22;2295;51.050;14.608;2022-09-13T13:01:41;25.00;66.50
4566;DHT22;2295;51.050;14.608;2022-09-13T13:04:14;24.80;69.10
4566;DHT22;2295;51.050;14.608;2022-09-13T13:06:46;24.90;68.20
4566;DHT22;2295;51.050;14.608;2022-09-13T13:09:20;25.10;67.00
4566;DHT22;2295;51.050;14.608;2022-09-13T13:11:54;25.80;67.10
4566;DHT22;2295;51.050;14.608;2022-09-13T13:14:29;25.80;64.60
4566;DHT22;2295;51.050;14.608;2022-09-13T13:19:56;25.30;65.10
4566;DHT22;2295;51.050;14.608;2022-09-13T13:25:29;25.50;67.80
4566;DHT22;2295;51.050;14.608;2022-09-13T13:27:57;25.60;67.30
4566;DHT22;2295;51.050;14.608;2022-09-13T13:33:18;24.90;68.20
4566;DHT22;2295;51.050;14.608;2022-09-13T13:35:46;24.70;69.70
4566;DHT22;2295;51.050;14.608;2022-09-13T13:41:05;24.10;72.90
4566;DHT22;2295;51.050;14.608;2022-09-13T13:43:38;23.80;72.40
4566;DHT22;2295;51.050;14.608;2022-09-13T13:46:23;23.50;76.10
4566;DHT22;2295;51.050;14.608;2022-09-13T13:48:53;23.70;74.80
4566;DHT22;2295;51.050;14.608;2022-09-13T13:51:23;23.90;74.60
4566;DHT22;2295;51.050;14.608;2022-09-13T13:53:53;24.10;74.00
4566;DHT22;2295;51.050;14.608;2022-09-13T13:56:31;24.30;72.70
4566;DHT22;2295;51.050;14.608;2022-09-13T13:59:04;24.60;71.40
4566;DHT22;2295;51.050;14.608;2022-09-13T14:01:35;24.50;71.90
4566;DHT22;2295;51.050;14.608;2022-09-13T14:04:23;24.40;71.50
4566;DHT22;2295;51.050;14.608;2022-09-13T14:07:00;24.20;72.80
4566;DHT22;2295;51.050;14.608;2022-09-13T14:09:45;24.00;75.20
4566;DHT22;2295;51.050;14.608;2022-09-13T14:12:19;24.10;75.80
4566;DHT22;2295;51.050;14.608;2022-09-13T14:14:54;24.10;75.20
4566;DHT22;2295;51.050;14.608;2022-09-13T14:17:42;24.10;73.20
4566;DHT22;2295;51.050;14.608;2022-09-13T14:20:15;23.90;73.60
4566;DHT22;2295;51.050;14.608;2022-09-13T14:22:43;23.40;76.40
4566;DHT22;2295;51.050;14.608;2022-09-13T14:25:13;22.90;77.90
4566;DHT22;2295;51.050;14.608;2022-09-13T14:27:42;22.60;78.90
4566;DHT22;2295;51.050;14.608;2022-09-13T14:30:17;22.80;79.60
4566;DHT22;2295;51.050;14.608;2022-09-13T14:32:46;22.90;80.00
4566;DHT22;2295;51.050;14.608;2022-09-13T14:35:22;23.00;79.20
4566;DHT22;2295;51.050;14.608;2022-09-13T14:37:50;23.20;78.40
4566;DHT22;2295;51.050;14.608;2022-09-13T14:40:20;23.20;78.80
4566;DHT22;2295;51.050;14.608;2022-09-13T14:42:49;23.10;79.60
4566;DHT22;2295;51.050;14.608;2022-09-13T14:45:18;22.90;79.50
4566;DHT22;2295;51.050;14.608;2022-09-13T14:47:49;22.70;81.70
4566;DHT22;2295;51.050;14.608;2022-09-13T14:50:21;22.40;81.00
4566;DHT22;2295;51.050;14.608;2022-09-13T14:52:52;22.20;81.50
4566;DHT22;2295;51.050;14.608;2022-09-13T14:55:22;22.00;84.10
4566;DHT22;2295;51.050;14.608;2022-09-13T14:57:54;21.90;85.30
4566;DHT22;2295;51.050;14.608;2022-09-13T15:00:24;21.90;84.50
4566;DHT22;2295;51.050;14.608;2022-09-13T15:02:53;21.90;84.70
4566;DHT22;2295;51.050;14.608;2022-09-13T15:05:22;21.90;84.30
4566;DHT22;2295;51.050;14.608;2022-09-13T15:07:52;21.90;86.40
4566;DHT22;2295;51.050;14.608;2022-09-13T15:10:21;21.90;86.20
4566;DHT22;2295;51.050;14.608;2022-09-13T15:12:50;22.00;85.60
4566;DHT22;2295;51.050;14.608;2022-09-13T15:15:29;22.20;85.00
4566;DHT22;2295;51.050;14.608;2022-09-13T15:17:59;22.20;83.70
4566;DHT22;2295;51.050;14.608;2022-09-13T15:20:28;22.10;85.00
4566;DHT22;2295;51.050;14.608;2022-09-13T15:23:04;22.20;84.00
4566;DHT22;2295;51.050;14.608;2022-09-13T15:25:37;22.20;83.60
4566;DHT22;2295;51.050;14.608;2022-09-13T15:28:15;22.10;85.30
4566;DHT22;2295;51.050;14.608;2022-09-13T15:30:45;22.00;84.80
4566;DHT22;2295;51.050;14.608;2022-09-13T15:33:16;21.90;86.20
4566;DHT22;2295;51.050;14.608;2022-09-13T15:35:45;21.80;86.80
4566;DHT22;2295;51.050;14.608;2022-09-13T15:38:17;21.70;86.30
4566;DHT22;2295;51.050;14.608;2022-09-13T15:40:46;21.60;86.30
4566;DHT22;2295;51.050;14.608;2022-09-13T15:43:14;21.40;87.60
4566;DHT22;2295;51.050;14.608;2022-09-13T15:45:42;21.30;87.90
4566;DHT22;2295;51.050;14.608;2022-09-13T15:48:14;21.10;89.30
4566;DHT22;2295;51.050;14.608;2022-09-13T15:50:44;21.00;88.90
4566;DHT22;2295;51.050;14.608;2022-09-13T15:53:30;20.80;90.20
4566;DHT22;2295;51.050;14.608;2022-09-13T15:55:59;20.70;90.50
4566;DHT22;2295;51.050;14.608;2022-09-13T15:58:27;20.60;90.80
4566;DHT22;2295;51.050;14.608;2022-09-13T16:00:55;20.50;92.20
4566;DHT22;2295;51.050;14.608;2022-09-13T16:03:24;20.30;92.00
4566;DHT22;2295;51.050;14.608;2022-09-13T16:05:52;20.20;92.80
4566;DHT22;2295;51.050;14.608;2022-09-13T16:08:20;20.20;93.20
4566;DHT22;2295;51.050;14.608;2022-09-13T16:10:50;20.10;93.20
4566;DHT22;2295;51.050;14.608;2022-09-13T16:13:19;20.00;93.40
4566;DHT22;2295;51.050;14.608;2022-09-13T16:16:24;20.00;93.50
4566;DHT22;2295;51.050;14.608;2022-09-13T16:18:52;20.00;93.70
4566;DHT22;2295;51.050;14.608;2022-09-13T16:24:07;19.90;94.10
4566;DHT22;2295;51.050;14.608;2022-09-13T16:26:36;19.90;94.60
4566;DHT22;2295;51.050;14.608;2022-09-13T16:29:05;19.80;94.80
4566;DHT22;2295;51.050;14.608;2022-09-13T16:31:34;19.80;95.10
4566;DHT22;2295;51.050;14.608;2022-09-13T16:34:02;19.70;95.70
4566;DHT22;2295;51.050;14.608;2022-09-13T16:36:30;19.60;96.50
4566;DHT22;2295;51.050;14.608;2022-09-13T16:39:00;19.60;97.00
4566;DHT22;2295;51.050;14.608;2022-09-13T16:41:29;19.50;97.10
4566;DHT22;2295;51.050;14.608;2022-09-13T16:43:57;19.50;97.20
4566;DHT22;2295;51.050;14.608;2022-09-13T16:46:27;19.40;97.60